createdAt,value
2023-01-11T00:03:30.374Z,97204.22
2023-01-11T00:08:51.384Z,97191.75
2023-01-11T00:14:12.327Z,97198.31
2023-01-11T00:19:33.215Z,97187.69
2023-01-11T00:24:54.022Z,97187.28
2023-01-11T00:30:14.757Z,97184.34
2023-01-11T00:35:35.774Z,97182.75
2023-01-11T00:40:56.451Z,97181.72
2023-01-11T00:46:43.163Z,97179.28
2023-01-11T00:52:08.768Z,97178.44
2023-01-11T00:57:29.645Z,97172.44
2023-01-11T01:02:51.281Z,97161.81
2023-01-11T01:08:12.457Z,97164.88
2023-01-11T01:13:51.732Z,97152.84
2023-01-11T01:19:12.560Z,97152.84
2023-01-11T01:24:34.016Z,97156.00
2023-01-11T01:29:55.146Z,97148.75
2023-01-11T01:35:16.020Z,97154.81
2023-01-11T01:40:44.716Z,97155.56
2023-01-11T01:46:05.728Z,97154.81
2023-01-11T01:51:42.773Z,97139.88
2023-01-11T01:57:10.678Z,97129.59
2023-01-11T02:02:31.908Z,97119.75
2023-01-11T02:07:56.244Z,97121.81
2023-01-11T02:13:17.416Z,97109.34
2023-01-11T02:18:38.683Z,97107.19
2023-01-11T02:24:30.220Z,97105.81
2023-01-11T02:30:20.477Z,97105.53
2023-01-11T02:36:10.663Z,97098.66
2023-01-11T02:42:21.993Z,97092.63
2023-01-11T02:47:42.466Z,97080.34
2023-01-11T02:53:16.371Z,97067.06
2023-01-11T02:58:42.499Z,97064.34
2023-01-11T03:04:03.498Z,97068.00
2023-01-11T03:09:34.061Z,97067.97
2023-01-11T03:15:24.455Z,97062.56
2023-01-11T03:20:51.909Z,97049.19
2023-01-11T03:26:18.879Z,97033.47
2023-01-11T03:31:52.269Z,97031.41
2023-01-11T03:37:22.633Z,97028.59
2023-01-11T03:43:06.307Z,97033.00
2023-01-11T03:48:33.498Z,97027.69
2023-01-11T03:53:59.031Z,97026.09
2023-01-11T03:59:20.461Z,97020.88
2023-01-11T04:04:41.436Z,97014.38
2023-01-11T04:10:02.611Z,97009.75
2023-01-11T04:15:23.478Z,96998.34
2023-01-11T04:20:46.542Z,96997.34
2023-01-11T04:26:07.417Z,96998.66
2023-01-11T04:31:28.082Z,96988.47
2023-01-11T04:36:48.674Z,96978.22
2023-01-11T04:42:18.829Z,96982.22
2023-01-11T04:47:39.921Z,96977.69
2023-01-11T04:53:00.976Z,96978.59
2023-01-11T04:58:21.689Z,96976.66
2023-01-11T05:03:43.193Z,96968.63
2023-01-11T05:09:04.018Z,96968.47
2023-01-11T05:14:25.160Z,96953.88
2023-01-11T05:19:45.825Z,96959.34
2023-01-11T05:25:06.992Z,96959.16
2023-01-11T05:30:27.670Z,96952.97
2023-01-11T05:35:48.492Z,96956.34
2023-01-11T05:41:10.599Z,96951.94
2023-01-11T05:46:32.432Z,96950.78
2023-01-11T05:51:53.348Z,96936.94
2023-01-11T05:57:13.925Z,96942.84
2023-01-11T06:02:35.297Z,96942.91
2023-01-11T06:07:56.686Z,96937.75
2023-01-11T06:13:26.713Z,96940.34
2023-01-11T06:18:49.735Z,96929.88
2023-01-11T06:24:10.488Z,96924.38
2023-01-11T06:29:31.087Z,96929.69
2023-01-11T06:34:51.877Z,96921.09
2023-01-11T06:40:12.923Z,96921.97
2023-01-11T06:45:34.618Z,96926.69
2023-01-11T06:50:57.759Z,96914.50
2023-01-11T06:56:21.339Z,96913.63
2023-01-11T07:01:42.418Z,96912.28
2023-01-11T07:07:03.654Z,96921.44
2023-01-11T07:12:24.470Z,96933.31
2023-01-11T07:17:47.696Z,96921.00
2023-01-11T07:23:08.559Z,96922.75
2023-01-11T07:28:30.794Z,96912.59
2023-01-11T07:33:51.854Z,96913.19
2023-01-11T07:39:12.621Z,96904.56
2023-01-11T07:44:33.375Z,96908.13
2023-01-11T07:49:54.214Z,96912.59
2023-01-11T07:55:15.923Z,96913.91
2023-01-11T08:00:36.695Z,96923.84
2023-01-11T08:05:57.605Z,96917.44
2023-01-11T08:11:36.934Z,96922.69
2023-01-11T08:16:57.713Z,96917.41
2023-01-11T08:22:18.527Z,96917.31
2023-01-11T08:27:40.657Z,96924.97
2023-01-11T08:33:02.184Z,96931.63
2023-01-11T08:38:23.212Z,96936.47
2023-01-11T08:43:43.920Z,96932.88
2023-01-11T08:49:05.380Z,96933.16
2023-01-11T08:54:26.409Z,96940.44
2023-01-11T08:59:47.131Z,96938.09
2023-01-11T09:05:08.357Z,96938.56
2023-01-11T09:10:29.883Z,96939.22
2023-01-11T09:15:55.938Z,96943.28
2023-01-11T09:21:17.248Z,96931.09
2023-01-11T09:26:38.496Z,96921.47
2023-01-11T09:31:59.539Z,96922.09
2023-01-11T09:37:20.308Z,96914.94
2023-01-11T09:42:43.138Z,96904.63
2023-01-11T09:48:26.730Z,96885.19
2023-01-11T09:53:53.926Z,96872.00
2023-01-11T09:59:34.984Z,96859.66
2023-01-11T10:05:27.517Z,96857.81
2023-01-11T10:18:38.801Z,96842.06
2023-01-11T10:23:06.169Z,96827.56
2023-01-11T10:29:30.276Z,96828.63
2023-01-11T10:35:17.968Z,96807.47
2023-01-11T10:41:15.935Z,96808.81
2023-01-11T10:46:44.992Z,96807.59
2023-01-11T10:52:24.753Z,96812.66
2023-01-11T10:58:19.534Z,96816.28
2023-01-11T11:04:17.430Z,96817.31
2023-01-11T11:09:38.620Z,96803.69
2023-01-11T11:15:15.493Z,96795.53
2023-01-11T11:20:36.313Z,96791.59
2023-01-11T11:26:02.541Z,96771.78
2023-01-11T11:31:23.261Z,96764.84
2023-01-11T11:36:46.307Z,96753.56
2023-01-11T11:42:15.068Z,96737.13
2023-01-11T11:47:37.814Z,96722.94
2023-01-11T11:53:05.189Z,96707.84
2023-01-11T11:58:27.415Z,96707.28
2023-01-11T12:03:49.604Z,96712.56
2023-01-11T12:09:31.459Z,96694.34
2023-01-11T12:15:31.755Z,96684.13
2023-01-11T12:20:53.457Z,96681.66
2023-01-11T12:26:25.133Z,96671.81
2023-01-11T12:31:49.051Z,96668.91
2023-01-11T12:37:25.699Z,96658.00
2023-01-11T12:43:22.450Z,96648.25
2023-01-11T12:49:09.700Z,96646.28
2023-01-11T12:54:45.641Z,96640.16
2023-01-11T13:00:24.822Z,96634.28
2023-01-11T13:06:01.410Z,96624.53
2023-01-11T13:11:38.092Z,96615.72
2023-01-11T13:17:14.354Z,96606.09
2023-01-11T13:22:50.570Z,96612.69
2023-01-11T13:28:28.235Z,96608.25
2023-01-11T13:33:53.873Z,96608.00
2023-01-11T13:39:43.620Z,96591.53
2023-01-11T13:45:13.449Z,96598.38
2023-01-11T13:50:34.246Z,96595.47
2023-01-11T13:55:56.919Z,96595.91
2023-01-11T14:01:23.926Z,96596.41
2023-01-11T14:06:57.974Z,96598.06
2023-01-11T14:12:56.575Z,96597.38
2023-01-11T14:18:51.690Z,96595.38
2023-01-11T14:24:14.267Z,96598.44
2023-01-11T14:29:59.056Z,96616.44
2023-01-11T14:35:52.343Z,96621.53
2023-01-11T14:41:29.955Z,96623.66
2023-01-11T14:47:02.467Z,96620.84
2023-01-11T14:52:39.628Z,96620.13
2023-01-11T14:58:19.570Z,96613.06
2023-01-11T15:03:48.210Z,96601.91
2023-01-11T15:09:49.195Z,96611.53
2023-01-11T15:15:13.203Z,96610.47
2023-01-11T15:20:34.210Z,96611.19
2023-01-11T15:26:04.488Z,96617.44
2023-01-11T15:31:39.262Z,96612.50
2023-01-11T15:37:00.215Z,96616.06
2023-01-11T15:42:53.267Z,96612.16
2023-01-11T15:48:31.507Z,96616.28
2023-01-11T15:54:22.662Z,96616.72
2023-01-11T16:00:22.630Z,96609.09
2023-01-11T16:05:54.324Z,96615.09
2023-01-11T16:11:26.111Z,96616.88
2023-01-11T16:16:52.708Z,96619.78
2023-01-11T16:22:22.022Z,96626.50
2023-01-11T16:27:43.767Z,96628.50
2023-01-11T16:33:35.066Z,96624.28
2023-01-11T16:39:07.058Z,96635.00
2023-01-11T16:44:36.815Z,96639.69
2023-01-11T16:50:25.281Z,96638.75
2023-01-11T16:56:09.280Z,96640.28
2023-01-11T17:01:52.450Z,96643.34
2023-01-11T17:07:27.656Z,96646.53
2023-01-11T17:13:31.320Z,96644.66
2023-01-11T17:18:52.202Z,96649.59
2023-01-11T17:24:15.160Z,96651.22
2023-01-11T17:29:40.511Z,96651.34
2023-01-11T17:35:10.132Z,96651.34
2023-01-11T17:40:40.270Z,96658.41
2023-01-11T17:46:03.139Z,96669.28
2023-01-11T17:51:29.680Z,96668.66
2023-01-11T17:57:00.245Z,96664.41
2023-01-11T18:02:20.957Z,96673.13
2023-01-11T18:07:46.458Z,96674.28
2023-01-11T18:13:24.583Z,96681.03
2023-01-11T18:18:48.003Z,96683.25
2023-01-11T18:24:09.081Z,96687.81
2023-01-11T18:29:36.164Z,96688.94
2023-01-11T18:35:00.068Z,96688.34
2023-01-11T18:40:21.689Z,96690.00
2023-01-11T18:45:42.513Z,96688.34
2023-01-11T18:51:03.388Z,96699.50
2023-01-11T18:56:24.042Z,96703.88
2023-01-11T19:01:56.389Z,96712.69
2023-01-11T19:07:23.217Z,96723.41
2023-01-11T19:12:44.810Z,96735.22
2023-01-11T19:18:05.517Z,96735.69
2023-01-11T19:23:26.229Z,96743.69
2023-01-11T19:28:47.137Z,96743.47
2023-01-11T19:34:08.331Z,96753.00
2023-01-11T19:39:29.531Z,96755.84
2023-01-11T19:44:50.599Z,96765.03
2023-01-11T19:50:11.596Z,96782.22
2023-01-11T19:55:32.506Z,96777.16
2023-01-11T20:00:53.314Z,96780.25
2023-01-11T20:06:14.118Z,96781.78
2023-01-11T20:11:34.864Z,96783.91
2023-01-11T20:16:58.340Z,96791.06
2023-01-11T20:22:19.035Z,96801.91
2023-01-11T20:27:40.560Z,96802.59
2023-01-11T20:33:02.560Z,96807.06
2023-01-11T20:38:24.275Z,96812.50
2023-01-11T20:43:45.024Z,96814.97
2023-01-11T20:49:07.389Z,96817.91
2023-01-11T20:54:28.481Z,96830.63
2023-01-11T20:59:50.378Z,96842.53
2023-01-11T21:05:11.194Z,96837.34
2023-01-11T21:10:31.942Z,96839.81
2023-01-11T21:15:53.423Z,96843.81
2023-01-11T21:21:19.097Z,96846.56
2023-01-11T21:26:43.689Z,96848.66
2023-01-11T21:32:05.156Z,96840.53
2023-01-11T21:37:26.235Z,96839.88
2023-01-11T21:42:47.246Z,96855.13
2023-01-11T21:48:09.331Z,96862.16
2023-01-11T21:53:32.051Z,96876.34
2023-01-11T21:58:52.718Z,96882.19
2023-01-11T22:04:15.370Z,96896.72
2023-01-11T22:09:37.757Z,96901.06
2023-01-11T22:14:58.739Z,96895.66
2023-01-11T22:20:20.512Z,96897.34
2023-01-11T22:25:41.682Z,96907.50
2023-01-11T22:31:06.099Z,96921.28
2023-01-11T22:36:28.535Z,96928.78
2023-01-11T22:41:49.998Z,96922.78
2023-01-11T22:47:10.709Z,96926.97
2023-01-11T22:52:32.254Z,96924.13
2023-01-11T22:57:53.004Z,96916.06
2023-01-11T23:03:14.813Z,96924.72
2023-01-11T23:08:43.627Z,96922.78
2023-01-11T23:14:06.692Z,96924.66
2023-01-11T23:19:27.646Z,96920.75
2023-01-11T23:24:48.234Z,96933.91
2023-01-11T23:30:10.021Z,96930.13
2023-01-11T23:35:30.616Z,96933.19
2023-01-11T23:41:10.211Z,96936.09
2023-01-11T23:46:49.643Z,96941.06
2023-01-11T23:52:10.382Z,96938.91
2023-01-11T23:57:31.160Z,96940.88
